Time;durP1;ratioP1;P1;durP2;ratioP2;P2;SDS_P1;SDS_P2;PMS_P1;PMS_P2;Temp;Humidity;BMP_temperature;BMP_pressure;BME280_temperature;BME280_humidity;BME280_pressure;Samples;Min_cycle;Max_cycle;Signal;HPM_P1;HPM_P2
2022/11/04 00:02:03;;;;;;;1.40;0.95;;;;;;;;;;6303087;22;20329;-87
2022/11/04 00:04:29;;;;;;;2.00;1.48;;;;;;;;;;6307487;22;20142;-87
2022/11/04 00:06:56;;;;;;;1.80;1.10;;;;;;;;;;6308066;22;20154;-88
2022/11/04 00:09:25;;;;;;;1.13;0.95;;;10.70;99.90;;;;;;6305742;22;20171;-89
2022/11/04 00:14:38;;;;;;;2.55;0.90;;;;;;;;;;6305856;22;20209;-87
2022/11/04 00:17:24;;;;;;;2.33;1.45;;;;;;;;;;6306080;22;20163;-87
2022/11/04 00:33:45;;;;;;;2.67;1.20;;;10.70;99.90;;;;;;6289535;22;20170;-89
2022/11/04 00:36:10;;;;;;;1.45;0.90;;;10.60;99.90;;;;;;6292261;22;20167;-89
2022/11/04 00:38:36;;;;;;;1.00;0.90;;;10.60;99.90;;;;;;6294277;22;20166;-89
2022/11/04 00:41:02;;;;;;;1.93;1.13;;;;;;;;;;6294062;22;20249;-90
2022/11/04 00:43:28;;;;;;;2.30;0.80;;;;;;;;;;6302900;22;20217;-89
2022/11/04 00:45:54;;;;;;;1.00;0.80;;;;;;;;;;6294670;22;20385;-89
2022/11/04 00:48:20;;;;;;;3.07;1.47;;;;;;;;;;6293232;22;20377;-90
2022/11/04 00:50:46;;;;;;;1.30;1.00;;;;;;;;;;6296273;22;21356;-87
2022/11/04 00:53:12;;;;;;;1.33;0.70;;;;;;;;;;6291875;22;20377;-90
2022/11/04 00:55:38;;;;;;;1.40;0.97;;;;;;;;;;6298830;22;20430;-89
2022/11/04 00:58:03;;;;;;;1.45;0.80;;;;;;;;;;6297433;22;20400;-88
2022/11/04 01:00:29;;;;;;;1.43;0.87;;;;;;;;;;6299989;22;20179;-89
2022/11/04 01:02:56;;;;;;;2.73;0.90;;;;;;;;;;6293418;22;20429;-89
2022/11/04 01:05:22;;;;;;;1.70;0.80;;;;;;;;;;6299555;22;20370;-89
2022/11/04 01:07:48;;;;;;;0.83;0.70;;;;;;;;;;6300033;22;20198;-86
2022/11/04 01:10:14;;;;;;;1.65;1.10;;;;;;;;;;6302093;22;20373;-89
2022/11/04 01:12:40;;;;;;;2.20;1.00;;;;;;;;;;6296681;22;20151;-88
2022/11/04 01:15:06;;;;;;;4.15;0.93;;;11.00;99.90;;;;;;6297672;22;20411;-88
2022/11/04 01:17:32;;;;;;;2.67;0.60;;;;;;;;;;6298197;22;20167;-89
2022/11/04 01:19:58;;;;;;;2.20;1.17;;;;;;;;;;6296458;22;20365;-89
2022/11/04 01:22:23;;;;;;;1.10;0.90;;;10.60;99.90;;;;;;6296626;22;20413;-88
2022/11/04 01:24:49;;;;;;;0.73;0.73;;;;;;;;;;6302026;22;20373;-89
2022/11/04 01:27:15;;;;;;;3.63;1.07;;;;;;;;;;6299112;22;20200;-90
2022/11/04 01:29:41;;;;;;;1.73;0.80;;;;;;;;;;6300182;22;21275;-89
2022/11/04 01:32:07;;;;;;;3.80;1.17;;;;;;;;;;6295551;22;20394;-88
2022/11/04 01:34:33;;;;;;;1.20;0.80;;;;;;;;;;6296963;22;20373;-89
2022/11/04 01:36:59;;;;;;;1.63;1.53;;;;;;;;;;6297405;22;20408;-87
2022/11/04 01:39:25;;;;;;;2.20;1.00;;;;;;;;;;6298410;22;20374;-89
2022/11/04 01:41:51;;;;;;;1.17;1.07;;;;;;;;;;6299863;22;20370;-89
2022/11/04 01:45:01;;;;;;;1.77;0.73;;;10.30;99.90;;;;;;6297789;22;20378;-88
2022/11/04 01:47:41;;;;;;;4.05;0.95;;;10.40;99.90;;;;;;6297645;22;21090;-87
2022/11/04 01:50:14;;;;;;;1.63;0.70;;;10.40;99.90;;;;;;6298396;22;20142;-88
2022/11/04 01:52:55;;;;;;;2.35;1.02;;;13.80;99.90;;;;;;6296100;22;20158;-88
2022/11/04 01:55:30;;;;;;;2.45;0.93;;;10.30;99.90;;;;;;6300805;22;20155;-88
2022/11/04 01:58:01;;;;;;;0.80;0.80;;;10.40;99.90;;;;;;6297398;22;21138;-90
2022/11/04 02:00:28;;;;;;;4.50;1.00;;;;;;;;;;6299753;22;20151;-89
2022/11/04 02:13:45;;;;;;;3.30;1.80;;;10.60;99.90;;;;;;4980695;28;21190;-83
2022/11/04 02:16:24;;;;;;;5.27;1.23;;;10.50;99.90;;;;;;4968929;28;20702;-81
2022/11/04 02:19:03;;;;;;;1.35;0.90;;;10.40;99.90;;;;;;4966793;28;20308;-81
2022/11/04 02:21:41;;;;;;;3.42;1.15;;;10.30;99.90;;;;;;4986590;28;20178;-80
2022/11/04 02:24:28;;;;;;;2.08;0.68;;;10.20;99.90;;;;;;4968587;28;20560;-81
2022/11/04 02:27:32;;;;;;;4.18;0.95;;;10.20;99.90;;;;;;4966924;28;20391;-79
2022/11/04 02:30:07;;;;;;;1.60;0.85;;;10.20;99.90;;;;;;4969364;28;20503;-81
2022/11/04 02:32:38;;;;;;;4.50;1.00;;;10.10;99.90;;;;;;4959938;28;20237;-82
2022/11/04 02:35:45;;;;;;;3.85;0.77;;;10.10;99.90;;;;;;4969235;28;20207;-82
2022/11/04 02:38:36;;;;;;;2.53;1.00;;;10.10;99.90;;;;;;5008557;28;20207;-83
2022/11/04 02:41:33;;;;;;;3.65;0.80;;;10.10;99.90;;;;;;4987936;28;20744;-81
2022/11/04 02:44:30;;;;;;;1.23;0.70;;;10.20;99.90;;;;;;4979549;28;20188;-83
2022/11/04 02:47:04;;;;;;;4.45;1.10;;;10.20;99.90;;;;;;4980753;28;20211;-83
2022/11/04 02:49:54;;;;;;;3.08;1.02;;;10.10;99.90;;;;;;4980116;28;20175;-83
2022/11/04 02:52:35;;;;;;;2.28;0.80;;;10.10;99.90;;;;;;4980242;28;20219;-81
2022/11/04 02:55:10;;;;;;;3.95;1.30;;;10.10;99.90;;;;;;4978144;28;20195;-83
2022/11/04 02:57:39;;;;;;;2.17;1.10;;;10.00;99.90;;;;;;4979507;28;20190;-85
2022/11/04 03:00:11;;;;;;;4.22;1.30;;;9.90;99.90;;;;;;4983679;28;20180;-82
2022/11/04 03:02:47;;;;;;;6.70;1.25;;;9.90;99.90;;;;;;4978490;28;20195;-81
2022/11/04 03:05:17;;;;;;;1.70;0.80;;;10.00;99.90;;;;;;4984264;28;20601;-81
2022/11/04 03:07:45;;;;;;;4.28;0.80;;;10.00;99.90;;;;;;4978269;28;20219;-82
2022/11/04 03:10:17;;;;;;;4.57;1.10;;;9.90;99.90;;;;;;4990646;28;20262;-83
2022/11/04 03:12:52;;;;;;;4.15;1.00;;;9.80;99.90;;;;;;4988517;28;20211;-80
2022/11/04 03:15:27;;;;;;;4.32;1.35;;;9.80;99.90;;;;;;4987022;28;20729;-81
2022/11/04 03:17:58;;;;;;;2.90;1.15;;;9.80;99.90;;;;;;4980778;28;20179;-82
2022/11/04 03:20:26;;;;;;;5.10;1.70;;;9.70;99.90;;;;;;4984480;28;20186;-81
2022/11/04 03:22:58;;;;;;;3.28;1.10;;;9.70;99.90;;;;;;4976491;28;20195;-81
2022/11/04 03:25:27;;;;;;;3.70;1.38;;;9.70;99.90;;;;;;4965281;28;20208;-80
2022/11/04 03:28:02;;;;;;;5.32;1.90;;;9.60;99.90;;;;;;4962147;28;20220;-82
2022/11/04 03:30:37;;;;;;;1.20;0.98;;;9.60;99.90;;;;;;4983253;28;20326;-78
2022/11/04 03:33:25;;;;;;;1.98;0.70;;;9.60;99.90;;;;;;4971419;28;20199;-81
2022/11/04 03:35:51;;;;;;;4.25;1.10;;;9.60;99.90;;;;;;4970923;28;20200;-82
2022/11/04 03:38:17;;;;;;;8.73;1.43;;;;;;;;;;4966686;28;20183;-81
2022/11/04 03:40:42;;;;;;;1.23;1.10;;;9.50;99.90;;;;;;4967570;28;20485;-79
2022/11/04 03:43:26;;;;;;;8.70;1.47;;;9.50;99.90;;;;;;4972259;28;20435;-82
2022/11/04 03:45:54;;;;;;;1.30;1.20;;;9.50;99.90;;;;;;4969790;28;20207;-83
2022/11/04 03:48:20;;;;;;;4.80;1.30;;;9.50;99.90;;;;;;4967735;28;20203;-82
2022/11/04 03:50:48;;;;;;;4.55;1.35;;;9.50;99.90;;;;;;4971623;28;20211;-83
2022/11/04 03:53:20;;;;;;;1.63;0.90;;;9.50;99.90;;;;;;4968225;28;20216;-84
2022/11/04 03:56:10;;;;;;;3.63;0.82;;;9.50;99.90;;;;;;4968585;28;20193;-82
2022/11/04 03:59:19;;;;;;;2.60;1.48;;;9.40;99.90;;;;;;4968588;28;20183;-81
2022/11/04 04:01:54;;;;;;;6.57;1.92;;;9.40;99.90;;;;;;4967812;28;20187;-80
2022/11/04 04:04:29;;;;;;;3.53;1.33;;;9.40;99.90;;;;;;4970524;28;20238;-83
2022/11/04 04:07:09;;;;;;;2.08;0.75;;;9.30;99.90;;;;;;4977390;28;20191;-85
2022/11/04 04:09:45;;;;;;;3.40;1.13;;;9.40;99.90;;;;;;4982077;28;20194;-82
2022/11/04 04:12:26;;;;;;;10.30;1.20;;;9.30;99.90;;;;;;4978417;28;20350;-83
2022/11/04 04:14:57;;;;;;;17.40;2.00;;;9.30;99.90;;;;;;4973479;28;20760;-83
2022/11/04 04:17:38;;;;;;;2.90;1.20;;;9.20;99.90;;;;;;4967817;28;20249;-81
2022/11/04 04:20:09;;;;;;;2.70;1.20;;;9.20;99.90;;;;;;4969182;28;20183;-82
2022/11/04 04:22:47;;;;;;;3.28;0.75;;;9.10;99.90;;;;;;4972472;28;20211;-80
2022/11/04 04:28:02;;;;;;;2.45;1.35;;;9.10;99.90;;;;;;4968207;28;20249;-82
2022/11/04 04:30:28;;;;;;;4.20;1.42;;;;;;;;;;4964967;28;20208;-86
2022/11/04 04:33:05;;;;;;;3.95;1.40;;;9.20;99.90;;;;;;4969511;28;20204;-85
2022/11/04 04:35:42;;;;;;;1.75;0.63;;;9.20;99.90;;;;;;4968589;28;20232;-83
2022/11/04 04:47:10;;;;;;;4.00;2.85;;;9.10;99.90;;;;;;4959537;28;20186;-80
2022/11/04 04:49:35;;;;;;;4.15;1.23;;;9.10;99.90;;;;;;4965008;28;20213;-82
2022/11/04 04:52:06;;;;;;;3.30;0.90;;;9.00;99.90;;;;;;4962639;28;20197;-80
2022/11/04 04:54:32;;;;;;;9.15;1.42;;;9.00;99.90;;;;;;4964524;28;20598;-81
2022/11/04 04:56:58;;;;;;;3.80;0.70;;;8.90;99.90;;;;;;4962158;28;20282;-79
2022/11/04 04:59:23;;;;;;;4.20;0.82;;;8.90;99.90;;;;;;4963708;28;20362;-80
2022/11/04 05:01:49;;;;;;;3.13;0.60;;;;;;;;;;4964012;28;20267;-79
2022/11/04 05:04:15;;;;;;;1.50;1.30;;;8.90;99.90;;;;;;4966024;28;20213;-79
2022/11/04 05:06:40;;;;;;;0.70;0.70;;;8.90;99.90;;;;;;4971798;28;20516;-80
2022/11/04 05:09:06;;;;;;;2.80;0.93;;;9.00;99.90;;;;;;4964976;28;20283;-82
2022/11/04 05:11:32;;;;;;;2.40;1.27;;;9.00;99.90;;;;;;4969800;28;20183;-81
2022/11/04 05:13:57;;;;;;;1.83;1.40;;;9.00;99.90;;;;;;4956621;28;20215;-80
2022/11/04 05:16:23;;;;;;;2.30;0.80;;;9.00;99.90;;;;;;4964010;28;20693;-81
2022/11/04 05:18:50;;;;;;;2.30;1.53;;;9.00;99.90;;;;;;4968658;28;20311;-82
2022/11/04 05:21:16;;;;;;;2.80;1.15;;;9.00;99.90;;;;;;4969221;28;20200;-83
2022/11/04 05:23:42;;;;;;;2.25;1.00;;;9.00;99.90;;;;;;4964351;28;20181;-81
2022/11/04 05:26:08;;;;;;;1.73;1.20;;;8.90;99.90;;;;;;4965376;28;20207;-82
2022/11/04 05:28:33;;;;;;;3.10;1.40;;;8.80;99.90;;;;;;4968914;28;20226;-79
2022/11/04 05:31:04;;;;;;;2.93;1.17;;;8.70;99.90;;;;;;4966014;28;20274;-82
2022/11/04 05:33:30;;;;;;;12.15;1.35;;;8.70;99.90;;;;;;4964269;28;20290;-80
2022/11/04 05:36:05;;;;;;;2.20;1.27;;;8.70;99.90;;;;;;4969530;28;20764;-82
2022/11/04 05:38:30;;;;;;;4.93;1.25;;;8.60;99.90;;;;;;4962931;28;20238;-83
2022/11/04 05:40:57;;;;;;;1.27;1.00;;;8.40;99.90;;;;;;4961272;28;20188;-84
2022/11/04 05:43:22;;;;;;;4.30;0.65;;;8.30;99.90;;;;;;4960819;28;20208;-81
2022/11/04 05:45:48;;;;;;;3.27;1.10;;;8.20;99.90;;;;;;4960508;28;20227;-81
2022/11/04 05:48:13;;;;;;;2.10;1.20;;;8.00;99.90;;;;;;4957829;28;20316;-81
2022/11/04 05:50:40;;;;;;;1.57;0.93;;;8.00;99.90;;;;;;4961303;28;20192;-84
2022/11/04 05:53:06;;;;;;;3.15;0.93;;;7.90;99.90;;;;;;4963869;28;20253;-83
2022/11/04 05:55:31;;;;;;;5.50;1.30;;;7.80;99.90;;;;;;4960525;28;20708;-80
2022/11/04 05:57:58;;;;;;;1.60;1.20;;;7.90;99.90;;;;;;4958512;28;20187;-80
2022/11/04 06:00:27;;;;;;;4.65;1.15;;;7.90;99.90;;;;;;4957476;28;20176;-81
2022/11/04 06:02:56;;;;;;;1.50;1.05;;;7.90;99.90;;;;;;4960275;28;20238;-81
2022/11/04 06:05:22;;;;;;;2.13;1.10;;;7.80;99.90;;;;;;4962742;28;20204;-81
2022/11/04 06:07:47;;;;;;;3.28;1.17;;;7.70;99.90;;;;;;4975723;28;20211;-82
2022/11/04 06:10:13;;;;;;;9.47;1.50;;;7.60;99.90;;;;;;4968203;28;20212;-81
2022/11/04 06:12:39;;;;;;;1.97;1.10;;;7.60;99.90;;;;;;4964525;28;20199;-81
2022/11/04 06:15:05;;;;;;;17.03;1.30;;;7.60;99.90;;;;;;4959608;28;20200;-81
2022/11/04 06:17:31;;;;;;;1.63;1.00;;;7.60;99.90;;;;;;4948004;28;20428;-80
2022/11/04 06:19:56;;;;;;;2.80;1.33;;;7.60;99.90;;;;;;4958696;28;20193;-84
2022/11/04 06:22:22;;;;;;;17.83;2.10;;;7.60;99.90;;;;;;4954488;28;20199;-82
2022/11/04 06:24:47;;;;;;;5.70;1.47;;;7.70;99.90;;;;;;4992202;23;20235;-84
2022/11/04 06:27:14;;;;;;;1.43;1.30;;;;;;;;;;4997014;28;20214;-86
2022/11/04 06:29:40;;;;;;;3.28;1.48;;;7.70;99.90;;;;;;4996653;28;20716;-86
2022/11/04 06:32:11;;;;;;;7.13;1.50;;;7.80;99.90;;;;;;4996656;28;20204;-85
2022/11/04 06:34:37;;;;;;;3.90;1.42;;;7.90;99.90;;;;;;4999727;28;20209;-85
2022/11/04 06:37:03;;;;;;;4.32;1.50;;;;;;;;;;4996512;28;20713;-86
2022/11/04 06:39:29;;;;;;;3.05;1.50;;;8.10;99.90;;;;;;5000651;28;20623;-85
2022/11/04 06:41:55;;;;;;;8.10;1.40;;;8.00;99.90;;;;;;5020131;28;20205;-86
2022/11/04 06:44:21;;;;;;;1.67;0.95;;;8.20;99.90;;;;;;5026984;28;20559;-84
2022/11/04 06:46:46;;;;;;;7.00;1.37;;;8.30;99.90;;;;;;5014317;28;20191;-84
2022/11/04 06:49:14;;;;;;;1.97;0.90;;;8.40;99.90;;;;;;5007398;28;20189;-84
2022/11/04 06:51:40;;;;;;;3.85;1.08;;;8.50;99.90;;;;;;5012392;28;20171;-84
2022/11/04 06:54:06;;;;;;;4.23;0.67;;;8.60;99.90;;;;;;5003052;28;20698;-84
2022/11/04 06:56:32;;;;;;;0.82;0.60;;;8.70;99.90;;;;;;5010495;28;20479;-84
2022/11/04 06:58:58;;;;;;;2.80;0.93;;;8.70;99.90;;;;;;5011714;28;20190;-84
2022/11/04 07:01:26;;;;;;;6.33;1.20;;;8.70;99.90;;;;;;5016731;28;20261;-84
2022/11/04 07:03:55;;;;;;;1.48;1.00;;;8.60;99.90;;;;;;5014650;28;20273;-84
2022/11/04 07:06:23;;;;;;;4.05;0.90;;;8.70;99.90;;;;;;5016640;28;20183;-84
2022/11/04 07:08:51;;;;;;;5.80;0.95;;;8.70;99.90;;;;;;5011783;28;20848;-84
2022/11/04 07:11:19;;;;;;;7.13;1.00;;;8.70;99.90;;;;;;5026447;28;20273;-84
2022/11/04 07:13:44;;;;;;;1.55;1.17;;;8.70;99.90;;;;;;5007784;28;20209;-83
2022/11/04 07:16:10;;;;;;;7.60;1.23;;;8.70;99.90;;;;;;5014205;28;20277;-83
2022/11/04 07:18:35;;;;;;;2.30;0.80;;;8.80;99.90;;;;;;5015146;28;20591;-84
2022/11/04 07:21:01;;;;;;;1.90;1.10;;;8.80;99.90;;;;;;5011100;28;20224;-84
2022/11/04 07:23:27;;;;;;;1.03;0.80;;;8.80;99.90;;;;;;5014987;28;20193;-84
2022/11/04 07:25:53;;;;;;;4.00;1.00;;;8.90;99.90;;;;;;5016443;28;20476;-84
2022/11/04 07:28:19;;;;;;;2.47;0.93;;;8.90;99.90;;;;;;5018017;28;20273;-84
2022/11/04 07:30:45;;;;;;;0.93;0.75;;;8.90;99.90;;;;;;5012958;28;20217;-84
2022/11/04 07:33:11;;;;;;;2.77;0.80;;;8.90;99.90;;;;;;5016021;28;20234;-84
2022/11/04 07:35:36;;;;;;;3.70;0.93;;;8.90;99.90;;;;;;5016188;28;20596;-84
2022/11/04 07:38:02;;;;;;;11.47;1.37;;;8.90;99.90;;;;;;5015357;28;20186;-84
2022/11/04 07:40:29;;;;;;;3.47;1.77;;;9.00;99.90;;;;;;5010621;28;20179;-84
2022/11/04 07:42:54;;;;;;;2.17;0.88;;;9.00;99.90;;;;;;5010581;28;20182;-83
2022/11/04 07:45:20;;;;;;;2.63;0.90;;;9.00;99.90;;;;;;5010104;28;20202;-84
2022/11/04 07:47:45;;;;;;;4.20;0.97;;;9.00;99.90;;;;;;5004015;28;20182;-84
2022/11/04 07:50:12;;;;;;;1.30;0.90;;;;;;;;;;5003201;28;20197;-84
2022/11/04 07:52:37;;;;;;;2.22;1.00;;;9.10;99.90;;;;;;5004588;28;20210;-84
2022/11/04 07:55:04;;;;;;;2.20;0.90;;;9.10;99.90;;;;;;5006549;28;20655;-84
2022/11/04 07:57:29;;;;;;;2.28;0.80;;;9.20;99.90;;;;;;5009230;28;20266;-84
2022/11/04 07:59:55;;;;;;;0.90;0.53;;;;;;;;;;5005601;28;20388;-83
2022/11/04 08:02:21;;;;;;;2.67;1.27;;;9.30;99.90;;;;;;5005717;28;20183;-84
2022/11/04 08:04:49;;;;;;;3.27;0.70;;;9.30;99.90;;;;;;5001021;28;20586;-84
2022/11/04 08:07:15;;;;;;;7.82;1.15;;;9.40;99.90;;;;;;5007370;28;20642;-84
2022/11/04 08:09:40;;;;;;;5.53;0.93;;;9.40;99.90;;;;;;5011722;28;20220;-84
2022/11/04 08:12:06;;;;;;;4.27;1.43;;;;;;;;;;5025323;28;20206;-84
2022/11/04 08:14:32;;;;;;;1.17;0.70;;;9.60;99.90;;;;;;5004766;28;20202;-83
2022/11/04 08:16:58;;;;;;;2.90;0.80;;;;;;;;;;5010770;28;20484;-83
2022/11/04 08:19:24;;;;;;;1.45;0.80;;;9.70;99.90;;;;;;5010447;28;20741;-83
2022/11/04 08:21:50;;;;;;;1.53;0.80;;;9.60;99.90;;;;;;5011813;28;20510;-83
2022/11/04 08:24:15;;;;;;;0.77;0.67;;;9.60;99.90;;;;;;5008225;28;20214;-83
2022/11/04 08:26:41;;;;;;;2.00;0.87;;;9.60;99.90;;;;;;5027426;28;20194;-83
2022/11/04 08:29:07;;;;;;;2.50;1.57;;;9.80;99.90;;;;;;5014387;28;20496;-83
2022/11/04 08:31:33;;;;;;;4.55;0.93;;;9.80;99.90;;;;;;5009302;28;20278;-83
2022/11/04 08:34:00;;;;;;;2.78;1.02;;;10.00;99.90;;;;;;5023876;28;20787;-83
2022/11/04 08:36:37;;;;;;;5.78;1.55;;;10.10;99.90;;;;;;5009730;28;20177;-83
2022/11/04 08:39:04;;;;;;;1.60;0.80;;;10.10;99.90;;;;;;5007587;28;20181;-82
2022/11/04 08:41:33;;;;;;;1.48;0.90;;;10.20;99.90;;;;;;5021638;28;20178;-82
2022/11/04 08:43:59;;;;;;;3.58;1.15;;;10.30;99.90;;;;;;5004357;28;20619;-83
2022/11/04 08:46:27;;;;;;;1.38;0.88;;;10.30;99.90;;;;;;5006961;28;20190;-83
2022/11/04 08:48:52;;;;;;;6.38;0.90;;;10.40;99.90;;;;;;5017932;28;20194;-83
2022/11/04 08:51:23;;;;;;;2.43;0.90;;;10.60;99.90;;;;;;5002705;28;20182;-83
2022/11/04 08:53:49;;;;;;;2.10;0.70;;;10.80;99.90;;;;;;5021846;28;20229;-83
2022/11/04 08:56:24;;;;;;;7.83;0.80;;;10.80;99.90;;;;;;5005421;28;20182;-83
2022/11/04 08:58:50;;;;;;;1.15;0.80;;;10.80;99.90;;;;;;5006058;28;20444;-83
2022/11/04 09:01:16;;;;;;;3.40;1.47;;;10.80;99.90;;;;;;5008565;28;20178;-83
2022/11/04 09:03:42;;;;;;;3.05;1.00;;;10.80;99.90;;;;;;5004510;28;20185;-83
2022/11/04 09:06:16;;;;;;;1.47;1.03;;;10.80;99.90;;;;;;5002126;28;20198;-83
2022/11/04 09:08:42;;;;;;;1.05;0.70;;;10.90;99.90;;;;;;5019869;28;20814;-83
2022/11/04 09:11:10;;;;;;;1.70;0.85;;;10.90;99.90;;;;;;5006817;28;20271;-82
2022/11/04 09:13:37;;;;;;;1.20;0.77;;;10.90;99.90;;;;;;5007029;28;20248;-83
2022/11/04 09:16:03;;;;;;;1.30;1.20;;;10.90;99.90;;;;;;5007353;28;20182;-82
2022/11/04 09:18:29;;;;;;;2.85;1.13;;;11.00;99.90;;;;;;5001812;28;20178;-83
2022/11/04 09:20:59;;;;;;;1.33;1.15;;;11.10;99.90;;;;;;5005547;28;20175;-83
2022/11/04 09:23:25;;;;;;;1.48;0.73;;;;;;;;;;4998110;28;20182;-83
2022/11/04 09:25:51;;;;;;;3.43;1.00;;;;;;;;;;5004572;28;20653;-83
2022/11/04 09:28:16;;;;;;;1.40;0.93;;;10.90;99.90;;;;;;5018634;28;20437;-83
2022/11/04 09:30:42;;;;;;;4.07;0.80;;;11.00;99.90;;;;;;5002975;28;20840;-84
2022/11/04 09:33:08;;;;;;;7.97;1.37;;;;;;;;;;5002925;28;20215;-84
2022/11/04 09:35:34;;;;;;;6.80;1.53;;;;;;;;;;5018047;28;20264;-83
2022/11/04 09:38:00;;;;;;;1.63;1.10;;;;;;;;;;5007981;28;20438;-84
2022/11/04 09:40:26;;;;;;;1.58;1.05;;;;;;;;;;4996943;28;20468;-83
2022/11/04 09:43:20;;;;;;;5.03;1.17;;;11.00;99.90;;;;;;5005276;28;20830;-83
2022/11/04 09:45:46;;;;;;;2.03;1.30;;;11.00;99.90;;;;;;5002473;28;20284;-83
2022/11/04 09:48:25;;;;;;;3.77;1.37;;;11.00;99.90;;;;;;4998215;28;20281;-83
2022/11/04 09:50:55;;;;;;;4.28;0.98;;;10.70;99.90;;;;;;5020183;28;20217;-83
2022/11/04 09:53:43;;;;;;;5.63;1.88;;;11.10;99.90;;;;;;5000975;28;20209;-84
2022/11/04 09:56:32;;;;;;;6.43;1.83;;;11.30;99.90;;;;;;5019673;28;20206;-83
2022/11/04 09:58:57;;;;;;;4.05;1.10;;;11.30;99.90;;;;;;5004091;28;20770;-83
2022/11/04 10:01:28;;;;;;;3.20;1.50;;;11.60;99.90;;;;;;5003676;28;20250;-83
2022/11/04 10:04:02;;;;;;;3.78;1.33;;;11.60;99.90;;;;;;5002351;28;20214;-83
2022/11/04 10:06:51;;;;;;;3.58;1.23;;;11.60;99.90;;;;;;5000080;28;20189;-83
2022/11/04 10:09:35;;;;;;;4.60;1.15;;;11.60;99.90;;;;;;5017548;28;20197;-84
2022/11/04 10:12:10;;;;;;;4.72;1.83;;;11.70;99.90;;;;;;5013760;28;20206;-83
2022/11/04 10:15:12;;;;;;;4.25;1.13;;;12.00;99.90;;;;;;5018751;28;20217;-84
2022/11/04 10:17:57;;;;;;;4.03;0.98;;;12.00;99.90;;;;;;4999711;28;20202;-84
2022/11/04 10:20:23;;;;;;;2.70;1.50;;;;;;;;;;5004721;28;20218;-84
2022/11/04 10:23:07;;;;;;;4.63;1.47;;;12.30;99.90;;;;;;5006888;28;20216;-84
2022/11/04 10:25:39;;;;;;;2.95;1.08;;;12.90;99.90;;;;;;5004067;28;20481;-84
2022/11/04 10:28:13;;;;;;;1.20;0.87;;;13.40;99.90;;;;;;5010122;28;20240;-83
2022/11/04 10:30:42;;;;;;;1.90;1.33;;;13.40;99.90;;;;;;5005901;28;21016;-82
2022/11/04 10:33:16;;;;;;;2.28;1.08;;;13.50;99.90;;;;;;5006681;28;20518;-84
2022/11/04 10:35:45;;;;;;;4.65;1.45;;;13.40;99.90;;;;;;5015150;28;20203;-83
2022/11/04 10:38:14;;;;;;;4.00;1.33;;;13.20;99.90;;;;;;5015859;28;20185;-83
2022/11/04 10:40:43;;;;;;;1.03;0.80;;;13.30;99.90;;;;;;5013065;28;20763;-84
2022/11/04 10:43:14;;;;;;;7.23;1.30;;;13.70;99.90;;;;;;5015494;28;20441;-84
2022/11/04 10:45:57;;;;;;;1.60;1.10;;;13.70;99.90;;;;;;5029267;28;21454;-84
2022/11/04 10:48:31;;;;;;;4.30;0.70;;;13.60;99.90;;;;;;5015083;28;20437;-84
2022/11/04 10:50:58;;;;;;;3.30;1.45;;;13.50;99.90;;;;;;5015189;28;20436;-85
2022/11/04 10:53:26;;;;;;;3.45;1.55;;;13.30;99.90;;;;;;5017528;28;20209;-83
2022/11/04 10:56:19;;;;;;;2.55;1.35;;;13.20;99.90;;;;;;5011092;28;20202;-85
2022/11/04 10:58:46;;;;;;;5.40;0.90;;;13.20;99.90;;;;;;5016638;28;20256;-84
2022/11/04 11:01:25;;;;;;;8.77;1.53;;;13.10;99.90;;;;;;5016202;28;20455;-84
2022/11/04 11:03:51;;;;;;;5.60;1.50;;;13.30;99.90;;;;;;5014176;28;20456;-84
2022/11/04 11:06:25;;;;;;;4.43;1.10;;;13.50;99.90;;;;;;5015526;28;20260;-85
2022/11/04 11:08:55;;;;;;;2.00;1.40;;;13.60;99.90;;;;;;5013375;28;20181;-85
2022/11/04 11:11:39;;;;;;;2.97;0.90;;;13.80;99.90;;;;;;5016677;28;20425;-84
2022/11/04 11:14:26;;;;;;;2.53;1.10;;;13.50;99.90;;;;;;5012088;28;21250;-84
2022/11/04 11:16:52;;;;;;;6.00;1.20;;;13.50;99.90;;;;;;5011694;28;20425;-84
2022/11/04 11:19:20;;;;;;;3.53;1.20;;;13.40;99.90;;;;;;5012461;28;20457;-84
2022/11/04 11:21:51;;;;;;;4.73;0.83;;;13.20;99.90;;;;;;5008957;28;20433;-84
2022/11/04 11:24:21;;;;;;;2.40;1.10;;;13.30;99.90;;;;;;5014171;28;20476;-84
2022/11/04 11:26:50;;;;;;;1.43;0.70;;;13.30;99.90;;;;;;5020106;28;20437;-84
2022/11/04 11:29:41;;;;;;;6.50;1.30;;;13.20;99.90;;;;;;5019904;28;20516;-84
2022/11/04 11:32:31;;;;;;;3.43;1.30;;;13.30;99.90;;;;;;5014819;28;20231;-84
2022/11/04 11:35:00;;;;;;;4.00;0.90;;;13.30;99.90;;;;;;5009008;28;20472;-84
2022/11/04 11:37:29;;;;;;;3.20;1.25;;;13.70;99.90;;;;;;5015102;28;20445;-84
2022/11/04 11:39:56;;;;;;;2.67;1.47;;;13.70;99.90;;;;;;5014037;28;20291;-84
2022/11/04 11:42:22;;;;;;;1.90;1.07;;;13.90;99.90;;;;;;5005045;28;20438;-84
2022/11/04 11:44:57;;;;;;;1.60;0.80;;;13.90;99.90;;;;;;5017251;28;20863;-84
2022/11/04 11:47:28;;;;;;;14.10;1.83;;;14.00;99.90;;;;;;5013783;28;20441;-84
2022/11/04 11:50:34;;;;;;;4.83;0.80;;;14.10;99.90;;;;;;5013772;28;20563;-85
2022/11/04 11:53:15;;;;;;;4.90;0.90;;;14.20;99.90;;;;;;4997425;28;20523;-84
2022/11/04 11:55:49;;;;;;;5.03;0.90;;;14.60;99.90;;;;;;5016289;28;20452;-84
2022/11/04 11:59:06;;;;;;;4.30;1.50;;;14.80;99.90;;;;;;5016844;28;20914;-84
2022/11/04 12:01:49;;;;;;;5.03;1.27;;;15.50;99.90;;;;;;4964937;28;20923;-85
2022/11/04 12:04:16;;;;;;;4.20;1.00;;;16.10;99.90;;;;;;4969534;28;20622;-84
2022/11/04 12:06:52;;;;;;;2.27;0.90;;;17.50;99.90;;;;;;4992976;28;20456;-84
2022/11/04 12:09:46;;;;;;;3.73;1.13;;;16.60;99.90;;;;;;5011877;28;20452;-84
2022/11/04 12:12:34;;;;;;;3.00;1.13;;;16.90;99.90;;;;;;5007072;28;20469;-83
2022/11/04 12:15:00;;;;;;;1.70;0.87;;;;;;;;;;5014989;28;20522;-85
2022/11/04 12:18:13;;;;;;;5.00;1.07;;;16.20;99.90;;;;;;5010291;28;20434;-84
2022/11/04 12:20:39;;;;;;;3.83;1.00;;;;;;;;;;5005559;28;20579;-86
2022/11/04 12:23:17;;;;;;;2.53;1.10;;;17.00;99.90;;;;;;5032176;28;20845;-85
2022/11/04 12:26:04;;;;;;;2.13;0.70;;;17.00;99.90;;;;;;5057429;22;20494;-83
2022/11/04 12:28:41;;;;;;;2.00;0.80;;;17.00;99.90;;;;;;5054839;28;20427;-82
2022/11/04 12:31:26;;;;;;;2.33;0.70;;;17.20;99.90;;;;;;5054004;28;20422;-82
2022/11/04 12:34:09;;;;;;;7.20;0.70;;;17.20;99.90;;;;;;5059124;28;20575;-86
2022/11/04 12:36:47;;;;;;;4.63;1.17;;;16.70;99.90;;;;;;5036173;28;20448;-84
2022/11/04 12:39:43;;;;;;;4.37;1.07;;;16.40;99.90;;;;;;5036461;28;20426;-82
2022/11/04 12:42:48;;;;;;;3.20;0.87;;;16.00;99.90;;;;;;5042741;28;20800;-83
2022/11/04 12:45:28;;;;;;;6.53;1.00;;;15.90;99.90;;;;;;5034933;28;20462;-85
2022/11/04 12:48:03;;;;;;;3.23;1.10;;;15.40;99.90;;;;;;5028598;28;20478;-82
2022/11/04 12:50:55;;;;;;;9.00;1.33;;;14.60;99.90;;;;;;5030532;28;20436;-82
2022/11/04 12:53:46;;;;;;;3.20;1.40;;;13.70;99.90;;;;;;5028074;28;20455;-81
2022/11/04 12:56:21;;;;;;;5.83;0.93;;;12.90;99.90;;;;;;5031178;28;20603;-83
2022/11/04 12:59:16;;;;;;;4.40;1.80;;;12.50;99.90;;;;;;5030391;28;20420;-83
2022/11/04 13:02:15;;;;;;;3.87;1.33;;;12.30;99.90;;;;;;5030832;28;20443;-84
2022/11/04 13:05:19;;;;;;;6.13;2.50;;;12.20;99.90;;;;;;5026926;28;20464;-82
2022/11/04 13:07:59;;;;;;;4.70;1.70;;;12.10;99.90;;;;;;5044604;28;20204;-81
2022/11/04 13:10:38;;;;;;;15.15;8.60;;;12.10;99.90;;;;;;5030455;28;20435;-82
2022/11/04 13:13:06;;;;;;;4.97;2.55;;;12.20;99.90;;;;;;5030118;28;20229;-84
2022/11/04 13:15:48;;;;;;;3.08;1.67;;;12.20;99.90;;;;;;5030147;28;20694;-86
2022/11/04 13:18:18;;;;;;;5.03;1.35;;;11.90;99.90;;;;;;5028569;28;20725;-82
2022/11/04 13:20:49;;;;;;;7.80;1.70;;;11.70;99.90;;;;;;5042593;28;20186;-81
2022/11/04 13:23:27;;;;;;;2.58;1.20;;;11.60;99.90;;;;;;5031726;28;20685;-84
2022/11/04 13:25:53;;;;;;;8.13;1.67;;;11.70;99.90;;;;;;5029964;28;20705;-85
2022/11/04 13:28:21;;;;;;;3.08;1.05;;;11.70;99.90;;;;;;5030024;28;20183;-86
2022/11/04 13:30:49;;;;;;;6.55;1.70;;;11.80;99.90;;;;;;5028080;28;20251;-83
2022/11/04 13:33:26;;;;;;;4.80;1.02;;;11.80;99.90;;;;;;5028490;28;20250;-83
2022/11/04 13:36:27;;;;;;;2.75;0.98;;;11.80;99.90;;;;;;5029242;28;20185;-83
2022/11/04 13:39:05;;;;;;;2.33;1.17;;;11.90;99.90;;;;;;5026286;28;20185;-84
2022/11/04 13:42:00;;;;;;;8.30;1.35;;;12.00;99.90;;;;;;5029150;28;20174;-84
2022/11/04 13:44:29;;;;;;;4.93;1.30;;;12.20;99.90;;;;;;5029587;28;20921;-82
2022/11/04 13:47:00;;;;;;;2.30;1.55;;;12.40;99.90;;;;;;5029960;28;20734;-84
2022/11/04 13:49:32;;;;;;;6.83;1.50;;;12.70;99.90;;;;;;5021255;28;20189;-82
2022/11/04 13:52:12;;;;;;;5.75;1.67;;;12.90;99.90;;;;;;5026532;28;20424;-83
2022/11/04 13:54:51;;;;;;;1.93;1.00;;;11.40;99.90;;;;;;5026124;28;20213;-84
2022/11/04 13:57:20;;;;;;;4.23;1.53;;;13.00;99.90;;;;;;5025959;28;20515;-82
2022/11/04 14:00:14;;;;;;;2.75;1.15;;;13.00;99.90;;;;;;5027838;28;20432;-84
2022/11/04 14:02:57;;;;;;;14.05;2.00;;;12.90;99.90;;;;;;5024182;28;20169;-84
2022/11/04 14:05:29;;;;;;;8.70;1.83;;;13.00;99.90;;;;;;5029238;28;20251;-80
2022/11/04 14:08:01;;;;;;;4.72;1.17;;;13.00;99.90;;;;;;5029327;28;20482;-81
2022/11/04 14:10:45;;;;;;;6.30;1.17;;;12.70;99.90;;;;;;5029931;28;20192;-80
2022/11/04 14:13:30;;;;;;;3.22;1.13;;;12.60;99.90;;;;;;5028503;28;20316;-82